sensor_id;sensor_type;location;lat;lon;timestamp;pressure;altitude;pressure_sealevel;temperature;humidity
68807;BME280;55800;54.272;18.558;2023-07-29T00:01:01;100171.09;;;14.12;61.92
68807;BME280;55800;54.272;18.558;2023-07-29T00:03:47;100168.56;;;14.09;65.16
68807;BME280;55800;54.272;18.558;2023-07-29T00:06:34;100165.22;;;14.05;65.55
68807;BME280;55800;54.272;18.558;2023-07-29T00:09:21;100161.00;;;14.01;64.12
68807;BME280;55800;54.272;18.558;2023-07-29T00:12:08;100166.47;;;14.00;65.08
68807;BME280;55800;54.272;18.558;2023-07-29T00:14:54;100168.50;;;13.96;65.89
68807;BME280;55800;54.272;18.558;2023-07-29T00:17:41;100165.91;;;13.95;66.69
68807;BME280;55800;54.272;18.558;2023-07-29T00:20:27;100169.44;;;13.95;65.53
68807;BME280;55800;54.272;18.558;2023-07-29T00:23:14;100166.09;;;13.92;64.43
68807;BME280;55800;54.272;18.558;2023-07-29T00:26:02;100164.38;;;13.91;63.07
68807;BME280;55800;54.272;18.558;2023-07-29T00:28:48;100169.81;;;13.89;62.85
68807;BME280;55800;54.272;18.558;2023-07-29T00:31:34;100169.16;;;13.86;62.47
68807;BME280;55800;54.272;18.558;2023-07-29T00:34:21;100170.97;;;13.85;61.85
68807;BME280;55800;54.272;18.558;2023-07-29T00:37:07;100162.16;;;13.83;61.49
68807;BME280;55800;54.272;18.558;2023-07-29T00:39:55;100170.31;;;13.82;61.16
68807;BME280;55800;54.272;18.558;2023-07-29T00:42:44;100174.81;;;13.81;60.92
68807;BME280;55800;54.272;18.558;2023-07-29T00:45:32;100172.34;;;13.78;60.75
68807;BME280;55800;54.272;18.558;2023-07-29T00:48:18;100168.84;;;13.76;60.46
68807;BME280;55800;54.272;18.558;2023-07-29T00:51:05;100177.13;;;13.73;60.44
68807;BME280;55800;54.272;18.558;2023-07-29T00:53:51;100169.22;;;13.70;60.30
68807;BME280;55800;54.272;18.558;2023-07-29T00:56:40;100172.19;;;13.66;60.12
68807;BME280;55800;54.272;18.558;2023-07-29T00:59:28;100175.19;;;13.61;60.08
68807;BME280;55800;54.272;18.558;2023-07-29T01:02:17;100167.31;;;13.58;59.78
68807;BME280;55800;54.272;18.558;2023-07-29T01:05:03;100179.19;;;13.54;59.67
68807;BME280;55800;54.272;18.558;2023-07-29T01:07:53;100178.59;;;13.49;59.74
68807;BME280;55800;54.272;18.558;2023-07-29T01:10:44;100181.56;;;13.45;59.64
68807;BME280;55800;54.272;18.558;2023-07-29T01:13:35;100178.22;;;13.41;59.52
68807;BME280;55800;54.272;18.558;2023-07-29T01:16:26;100177.53;;;13.38;59.57
68807;BME280;55800;54.272;18.558;2023-07-29T01:19:20;100176.94;;;13.32;59.46
68807;BME280;55800;54.272;18.558;2023-07-29T01:22:12;100176.28;;;13.29;59.46
68807;BME280;55800;54.272;18.558;2023-07-29T01:25:01;100172.88;;;13.25;59.34
68807;BME280;55800;54.272;18.558;2023-07-29T01:27:48;100174.91;;;13.22;59.40
68807;BME280;55800;54.272;18.558;2023-07-29T01:30:37;100178.63;;;13.19;59.33
68807;BME280;55800;54.272;18.558;2023-07-29T01:33:26;100175.28;;;13.16;59.18
68807;BME280;55800;54.272;18.558;2023-07-29T01:36:13;100182.56;;;13.14;59.05
68807;BME280;55800;54.272;18.558;2023-07-29T01:39:02;100181.88;;;13.10;59.19
68807;BME280;55800;54.272;18.558;2023-07-29T01:41:50;100181.19;;;13.07;58.97
68807;BME280;55800;54.272;18.558;2023-07-29T01:44:36;100170.59;;;13.04;59.03
68807;BME280;55800;54.272;18.558;2023-07-29T01:47:23;100186.09;;;12.99;60.06
68807;BME280;55800;54.272;18.558;2023-07-29T01:50:10;100188.00;;;12.97;59.76
68807;BME280;55800;54.272;18.558;2023-07-29T01:52:57;100181.88;;;12.95;59.29
68807;BME280;55800;54.272;18.558;2023-07-29T01:55:43;100180.22;;;12.92;59.38
68807;BME280;55800;54.272;18.558;2023-07-29T01:58:32;100175.91;;;12.90;59.27
68807;BME280;55800;54.272;18.558;2023-07-29T02:01:19;100177.81;;;12.88;59.09
68807;BME280;55800;54.272;18.558;2023-07-29T02:04:05;100188.78;;;12.83;59.34
68807;BME280;55800;54.272;18.558;2023-07-29T02:06:51;100187.09;;;12.82;59.51
68807;BME280;55800;54.272;18.558;2023-07-29T02:09:38;100188.03;;;12.81;59.25
68807;BME280;55800;54.272;18.558;2023-07-29T02:12:24;100186.41;;;12.79;59.20
68807;BME280;55800;54.272;18.558;2023-07-29T02:15:12;100184.66;;;12.78;59.15
68807;BME280;55800;54.272;18.558;2023-07-29T02:17:58;100184.75;;;12.76;59.18
68807;BME280;55800;54.272;18.558;2023-07-29T02:20:47;100190.19;;;12.75;59.08
68807;BME280;55800;54.272;18.558;2023-07-29T02:23:35;100197.47;;;12.73;59.11
68807;BME280;55800;54.272;18.558;2023-07-29T02:26:22;100203.03;;;12.70;59.00
68807;BME280;55800;54.272;18.558;2023-07-29T02:29:08;100195.91;;;12.69;59.00
68807;BME280;55800;54.272;18.558;2023-07-29T02:31:56;100194.38;;;12.65;61.16
68807;BME280;55800;54.272;18.558;2023-07-29T02:34:42;100201.63;;;12.63;59.53
68807;BME280;55800;54.272;18.558;2023-07-29T02:37:29;100202.59;;;12.62;59.34
68807;BME280;55800;54.272;18.558;2023-07-29T02:40:19;100199.91;;;12.62;59.15
68807;BME280;55800;54.272;18.558;2023-07-29T02:43:08;100202.75;;;12.59;59.02
68807;BME280;55800;54.272;18.558;2023-07-29T02:45:54;100200.19;;;12.57;59.07
68807;BME280;55800;54.272;18.558;2023-07-29T02:48:43;100203.88;;;12.54;58.92
68807;BME280;55800;54.272;18.558;2023-07-29T02:51:30;100204.81;;;12.53;58.97
68807;BME280;55800;54.272;18.558;2023-07-29T02:54:16;100199.66;;;12.50;58.97
68807;BME280;55800;54.272;18.558;2023-07-29T02:57:03;100205.19;;;12.47;59.37
68807;BME280;55800;54.272;18.558;2023-07-29T02:59:50;100205.38;;;12.44;59.07
68807;BME280;55800;54.272;18.558;2023-07-29T03:02:36;100205.53;;;12.41;59.13
68807;BME280;55800;54.272;18.558;2023-07-29T03:05:24;100208.34;;;12.38;60.05
68807;BME280;55800;54.272;18.558;2023-07-29T03:08:11;100213.91;;;12.35;60.04
68807;BME280;55800;54.272;18.558;2023-07-29T03:10:58;100217.72;;;12.31;59.75
68807;BME280;55800;54.272;18.558;2023-07-29T03:13:45;100225.84;;;12.30;59.47
68807;BME280;55800;54.272;18.558;2023-07-29T03:16:31;100228.59;;;12.28;59.44
68807;BME280;55800;54.272;18.558;2023-07-29T03:19:18;100232.25;;;12.27;59.45
68807;BME280;55800;54.272;18.558;2023-07-29T03:22:05;100231.47;;;12.25;59.44
68807;BME280;55800;54.272;18.558;2023-07-29T03:24:51;100231.47;;;12.25;59.39
68807;BME280;55800;54.272;18.558;2023-07-29T03:27:38;100232.28;;;12.26;59.38
68807;BME280;55800;54.272;18.558;2023-07-29T03:30:24;100228.78;;;12.25;59.51
68807;BME280;55800;54.272;18.558;2023-07-29T03:33:11;100226.09;;;12.25;59.48
68807;BME280;55800;54.272;18.558;2023-07-29T03:35:57;100230.50;;;12.26;59.41
68807;BME280;55800;54.272;18.558;2023-07-29T03:38:45;100227.66;;;12.29;62.07
68807;BME280;55800;54.272;18.558;2023-07-29T03:41:32;100238.66;;;12.40;63.21
68807;BME280;55800;54.272;18.558;2023-07-29T03:44:19;100237.94;;;12.68;69.95
68807;BME280;55800;54.272;18.558;2023-07-29T03:47:05;100239.16;;;12.94;71.24
68807;BME280;55800;54.272;18.558;2023-07-29T03:49:54;100245.06;;;13.16;72.64
68807;BME280;55800;54.272;18.558;2023-07-29T03:52:40;100242.25;;;13.33;72.58
68807;BME280;55800;54.272;18.558;2023-07-29T03:55:28;100250.34;;;13.47;73.20
68807;BME280;55800;54.272;18.558;2023-07-29T03:58:15;100248.75;;;13.59;71.47
68807;BME280;55800;54.272;18.558;2023-07-29T04:01:01;100243.13;;;13.77;73.18
68807;BME280;55800;54.272;18.558;2023-07-29T04:03:49;100239.63;;;13.91;73.00
68807;BME280;55800;54.272;18.558;2023-07-29T04:06:37;100239.63;;;14.05;70.77
68807;BME280;55800;54.272;18.558;2023-07-29T04:09:23;100243.19;;;14.20;72.08
68807;BME280;55800;54.272;18.558;2023-07-29T04:12:11;100252.13;;;14.34;73.17
68807;BME280;55800;54.272;18.558;2023-07-29T04:14:58;100257.59;;;14.47;73.13
68807;BME280;55800;54.272;18.558;2023-07-29T04:17:44;100260.19;;;14.62;73.68
68807;BME280;55800;54.272;18.558;2023-07-29T04:20:31;100256.69;;;14.74;73.66
68807;BME280;55800;54.272;18.558;2023-07-29T04:23:19;100268.69;;;14.83;73.26
68807;BME280;55800;54.272;18.558;2023-07-29T04:26:05;100260.59;;;14.97;72.63
68807;BME280;55800;54.272;18.558;2023-07-29T04:28:53;100261.50;;;15.10;72.83
68807;BME280;55800;54.272;18.558;2023-07-29T04:31:39;100261.47;;;15.24;72.73
68807;BME280;55800;54.272;18.558;2023-07-29T04:34:26;100262.69;;;15.33;72.75
68807;BME280;55800;54.272;18.558;2023-07-29T04:37:12;100254.75;;;15.44;73.05
68807;BME280;55800;54.272;18.558;2023-07-29T04:39:59;100257.81;;;15.52;72.98
68807;BME280;55800;54.272;18.558;2023-07-29T04:42:45;100254.94;;;15.68;73.27
68807;BME280;55800;54.272;18.558;2023-07-29T04:45:32;100249.88;;;15.76;70.54
68807;BME280;55800;54.272;18.558;2023-07-29T04:48:19;100257.13;;;15.88;72.48
68807;BME280;55800;54.272;18.558;2023-07-29T04:51:06;100243.22;;;15.94;71.21
68807;BME280;55800;54.272;18.558;2023-07-29T04:53:53;100248.63;;;16.06;73.56
68807;BME280;55800;54.272;18.558;2023-07-29T04:56:40;100245.16;;;16.17;72.70
68807;BME280;55800;54.272;18.558;2023-07-29T04:59:27;100248.16;;;16.25;71.39
68807;BME280;55800;54.272;18.558;2023-07-29T05:02:15;100249.25;;;16.35;72.17
68807;BME280;55800;54.272;18.558;2023-07-29T05:05:02;100247.72;;;16.43;71.46
68807;BME280;55800;54.272;18.558;2023-07-29T05:07:49;100258.56;;;16.56;72.06
68807;BME280;55800;54.272;18.558;2023-07-29T05:10:35;100254.22;;;16.66;71.96
68807;BME280;55800;54.272;18.558;2023-07-29T05:13:22;100254.38;;;16.76;70.67
68807;BME280;55800;54.272;18.558;2023-07-29T05:16:09;100258.25;;;16.84;70.98
68807;BME280;55800;54.272;18.558;2023-07-29T05:18:57;100253.28;;;16.91;69.79
68807;BME280;55800;54.272;18.558;2023-07-29T05:21:43;100260.81;;;16.98;69.77
68807;BME280;55800;54.272;18.558;2023-07-29T05:24:30;100259.28;;;17.07;70.02
68807;BME280;55800;54.272;18.558;2023-07-29T05:27:16;100259.66;;;17.13;69.06
68807;BME280;55800;54.272;18.558;2023-07-29T05:30:03;100259.84;;;17.23;68.92
68807;BME280;55800;54.272;18.558;2023-07-29T05:32:50;100259.03;;;17.34;68.64
68807;BME280;55800;54.272;18.558;2023-07-29T05:35:38;100257.63;;;17.41;67.80
68807;BME280;55800;54.272;18.558;2023-07-29T05:38:25;100258.84;;;17.48;69.34
68807;BME280;55800;54.272;18.558;2023-07-29T05:41:12;100254.75;;;17.55;68.19
68807;BME280;55800;54.272;18.558;2023-07-29T05:43:58;100257.72;;;17.63;69.03
68807;BME280;55800;54.272;18.558;2023-07-29T05:46:45;100267.84;;;17.72;68.77
68807;BME280;55800;54.272;18.558;2023-07-29T05:49:32;100267.97;;;17.81;68.59
68807;BME280;55800;54.272;18.558;2023-07-29T05:52:20;100277.22;;;17.90;67.99
68807;BME280;55800;54.272;18.558;2023-07-29T05:55:07;100275.66;;;17.99;68.06
68807;BME280;55800;54.272;18.558;2023-07-29T05:57:54;100266.09;;;18.06;67.75
68807;BME280;55800;54.272;18.558;2023-07-29T06:00:42;100280.50;;;18.17;67.54
68807;BME280;55800;54.272;18.558;2023-07-29T06:03:29;100276.09;;;18.27;67.24
68807;BME280;55800;54.272;18.558;2023-07-29T06:06:15;100280.78;;;18.36;67.32
68807;BME280;55800;54.272;18.558;2023-07-29T06:09:04;100280.19;;;18.44;66.76
68807;BME280;55800;54.272;18.558;2023-07-29T06:11:50;100278.38;;;18.55;66.67
68807;BME280;55800;54.272;18.558;2023-07-29T06:14:37;100278.34;;;18.66;66.04
68807;BME280;55800;54.272;18.558;2023-07-29T06:17:23;100282.06;;;18.77;66.46
68807;BME280;55800;54.272;18.558;2023-07-29T06:20:10;100285.00;;;18.85;66.17
68807;BME280;55800;54.272;18.558;2023-07-29T06:22:56;100281.28;;;18.97;66.11
68807;BME280;55800;54.272;18.558;2023-07-29T06:25:44;100284.72;;;19.10;65.96
68807;BME280;55800;54.272;18.558;2023-07-29T06:28:31;100282.09;;;19.19;65.67
68807;BME280;55800;54.272;18.558;2023-07-29T06:31:17;100292.78;;;19.32;65.17
68807;BME280;55800;54.272;18.558;2023-07-29T06:34:04;100292.78;;;19.43;64.79
68807;BME280;55800;54.272;18.558;2023-07-29T06:36:50;100288.34;;;19.53;64.10
68807;BME280;55800;54.272;18.558;2023-07-29T06:39:37;100286.56;;;19.63;64.32
68807;BME280;55800;54.272;18.558;2023-07-29T06:42:25;100288.38;;;19.74;63.86
68807;BME280;55800;54.272;18.558;2023-07-29T06:45:11;100285.63;;;19.85;63.35
68807;BME280;55800;54.272;18.558;2023-07-29T06:47:58;100290.22;;;19.94;63.62
68807;BME280;55800;54.272;18.558;2023-07-29T06:50:45;100290.31;;;20.03;62.27
68807;BME280;55800;54.272;18.558;2023-07-29T06:53:32;100292.97;;;20.14;62.75
68807;BME280;55800;54.272;18.558;2023-07-29T06:56:18;100277.78;;;20.23;62.23
68807;BME280;55800;54.272;18.558;2023-07-29T06:59:06;100274.13;;;20.34;61.84
68807;BME280;55800;54.272;18.558;2023-07-29T07:01:53;100269.44;;;20.45;62.93
68807;BME280;55800;54.272;18.558;2023-07-29T07:04:40;100274.22;;;20.53;62.84
68807;BME280;55800;54.272;18.558;2023-07-29T07:07:27;100272.66;;;20.60;60.14
68807;BME280;55800;54.272;18.558;2023-07-29T07:10:13;100271.38;;;20.64;60.21
68807;BME280;55800;54.272;18.558;2023-07-29T07:13:00;100270.72;;;20.71;59.79
68807;BME280;55800;54.272;18.558;2023-07-29T07:15:49;100277.91;;;20.82;60.06
68807;BME280;55800;54.272;18.558;2023-07-29T07:18:35;100275.38;;;20.90;60.74
68807;BME280;55800;54.272;18.558;2023-07-29T07:21:21;100271.81;;;20.99;60.35
68807;BME280;55800;54.272;18.558;2023-07-29T07:24:08;100270.88;;;21.10;60.98
68807;BME280;55800;54.272;18.558;2023-07-29T07:26:55;100272.03;;;21.17;58.16
68807;BME280;55800;54.272;18.558;2023-07-29T07:29:41;100266.88;;;21.23;58.16
68807;BME280;55800;54.272;18.558;2023-07-29T07:32:29;100276.38;;;21.29;57.90
68807;BME280;55800;54.272;18.558;2023-07-29T07:35:15;100271.66;;;21.40;58.75
68807;BME280;55800;54.272;18.558;2023-07-29T07:38:02;100264.34;;;21.50;58.67
68807;BME280;55800;54.272;18.558;2023-07-29T07:40:52;100261.81;;;21.58;59.47
68807;BME280;55800;54.272;18.558;2023-07-29T07:43:40;100267.66;;;21.63;56.76
68807;BME280;55800;54.272;18.558;2023-07-29T07:46:26;100266.09;;;21.70;55.72
68807;BME280;55800;54.272;18.558;2023-07-29T07:49:14;100266.66;;;21.74;54.42
68807;BME280;55800;54.272;18.558;2023-07-29T07:52:01;100258.78;;;21.81;56.13
68807;BME280;55800;54.272;18.558;2023-07-29T07:54:51;100252.34;;;21.82;52.49
68807;BME280;55800;54.272;18.558;2023-07-29T07:57:38;100248.63;;;21.83;53.56
68807;BME280;55800;54.272;18.558;2023-07-29T08:00:24;100247.78;;;21.92;54.90
68807;BME280;55800;54.272;18.558;2023-07-29T08:03:11;100241.59;;;21.99;55.06
68807;BME280;55800;54.272;18.558;2023-07-29T08:05:59;100243.44;;;22.08;54.10
68807;BME280;55800;54.272;18.558;2023-07-29T08:08:45;100244.03;;;22.12;52.54
68807;BME280;55800;54.272;18.558;2023-07-29T08:11:32;100243.13;;;22.21;53.18
68807;BME280;55800;54.272;18.558;2023-07-29T08:14:18;100237.41;;;22.24;54.00
68807;BME280;55800;54.272;18.558;2023-07-29T08:17:05;100249.13;;;22.34;52.03
68807;BME280;55800;54.272;18.558;2023-07-29T08:19:54;100241.06;;;22.42;52.15
68807;BME280;55800;54.272;18.558;2023-07-29T08:22:42;100242.47;;;22.46;51.23
68807;BME280;55800;54.272;18.558;2023-07-29T08:25:28;100250.06;;;22.52;51.64
68807;BME280;55800;54.272;18.558;2023-07-29T08:28:15;100241.03;;;22.61;52.96
68807;BME280;55800;54.272;18.558;2023-07-29T08:31:02;100243.13;;;22.67;51.52
68807;BME280;55800;54.272;18.558;2023-07-29T08:33:48;100234.78;;;22.78;53.93
68807;BME280;55800;54.272;18.558;2023-07-29T08:36:35;100237.59;;;22.86;51.87
68807;BME280;55800;54.272;18.558;2023-07-29T08:39:23;100230.53;;;22.93;52.44
68807;BME280;55800;54.272;18.558;2023-07-29T08:42:11;100231.56;;;22.92;49.12
68807;BME280;55800;54.272;18.558;2023-07-29T08:44:59;100232.66;;;22.99;49.60
68807;BME280;55800;54.272;18.558;2023-07-29T08:47:48;100232.03;;;23.05;50.35
68807;BME280;55800;54.272;18.558;2023-07-29T08:50:36;100226.69;;;23.13;51.21
68807;BME280;55800;54.272;18.558;2023-07-29T08:53:23;100234.97;;;23.21;51.83
68807;BME280;55800;54.272;18.558;2023-07-29T08:56:11;100237.34;;;23.24;51.67
68807;BME280;55800;54.272;18.558;2023-07-29T08:58:57;100235.03;;;23.29;50.18
68807;BME280;55800;54.272;18.558;2023-07-29T09:01:46;100235.16;;;23.38;50.85
68807;BME280;55800;54.272;18.558;2023-07-29T09:04:32;100230.25;;;23.41;51.06
68807;BME280;55800;54.272;18.558;2023-07-29T09:07:19;100236.25;;;23.45;48.18
68807;BME280;55800;54.272;18.558;2023-07-29T09:10:07;100232.81;;;23.43;47.19
68807;BME280;55800;54.272;18.558;2023-07-29T09:12:56;100228.59;;;23.48;49.09
68807;BME280;55800;54.272;18.558;2023-07-29T09:15:42;100227.97;;;23.54;48.18
68807;BME280;55800;54.272;18.558;2023-07-29T09:18:29;100232.59;;;23.54;48.12
68807;BME280;55800;54.272;18.558;2023-07-29T09:21:17;100226.81;;;23.57;48.42
68807;BME280;55800;54.272;18.558;2023-07-29T10:03:00;100219.44;;;23.04;48.15
68807;BME280;55800;54.272;18.558;2023-07-29T10:05:48;100218.59;;;23.21;47.52
68807;BME280;55800;54.272;18.558;2023-07-29T10:08:34;100203.13;;;23.40;48.41
68807;BME280;55800;54.272;18.558;2023-07-29T10:11:23;100207.00;;;23.55;47.16
68807;BME280;55800;54.272;18.558;2023-07-29T10:14:11;100211.94;;;23.69;47.81
68807;BME280;55800;54.272;18.558;2023-07-29T10:17:00;100207.06;;;23.80;47.46
68807;BME280;55800;54.272;18.558;2023-07-29T10:19:48;100194.16;;;23.90;48.78
68807;BME280;55800;54.272;18.558;2023-07-29T10:22:36;100193.88;;;23.93;44.49
68807;BME280;55800;54.272;18.558;2023-07-29T10:25:23;100187.59;;;24.01;47.98
68807;BME280;55800;54.272;18.558;2023-07-29T10:28:13;100185.66;;;24.11;47.14
68807;BME280;55800;54.272;18.558;2023-07-29T10:31:04;100182.97;;;24.19;46.18
68807;BME280;55800;54.272;18.558;2023-07-29T10:33:52;100187.47;;;24.28;46.64
68807;BME280;55800;54.272;18.558;2023-07-29T10:36:41;100191.25;;;24.35;47.47
68807;BME280;55800;54.272;18.558;2023-07-29T10:39:38;100190.28;;;24.44;46.73
68807;BME280;55800;54.272;18.558;2023-07-29T10:42:25;100193.06;;;24.52;47.00
68807;BME280;55800;54.272;18.558;2023-07-29T10:45:19;100191.91;;;24.63;47.23
68807;BME280;55800;54.272;18.558;2023-07-29T10:48:09;100184.59;;;24.71;45.53
68807;BME280;55800;54.272;18.558;2023-07-29T10:51:23;100191.88;;;24.81;46.77
68807;BME280;55800;54.272;18.558;2023-07-29T10:54:13;100183.00;;;24.87;47.37
68807;BME280;55800;54.272;18.558;2023-07-29T10:57:18;100181.47;;;24.92;46.56
68807;BME280;55800;54.272;18.558;2023-07-29T11:00:20;100182.03;;;25.04;47.43
68807;BME280;55800;54.272;18.558;2023-07-29T11:03:13;100175.69;;;25.11;46.28
68807;BME280;55800;54.272;18.558;2023-07-29T11:06:04;100169.22;;;25.20;46.09
68807;BME280;55800;54.272;18.558;2023-07-29T11:08:52;100174.69;;;25.28;47.25
68807;BME280;55800;54.272;18.558;2023-07-29T11:11:41;100169.25;;;25.36;47.04
68807;BME280;55800;54.272;18.558;2023-07-29T11:14:27;100172.72;;;25.46;46.85
68807;BME280;55800;54.272;18.558;2023-07-29T11:17:15;100168.13;;;25.55;44.71
68807;BME280;55800;54.272;18.558;2023-07-29T11:20:02;100160.91;;;25.62;45.70
68807;BME280;55800;54.272;18.558;2023-07-29T11:22:50;100158.69;;;25.66;44.96
68807;BME280;55800;54.272;18.558;2023-07-29T11:25:37;100159.56;;;25.74;45.40
68807;BME280;55800;54.272;18.558;2023-07-29T11:28:26;100160.03;;;25.86;46.21
68807;BME280;55800;54.272;18.558;2023-07-29T11:31:13;100157.81;;;25.97;45.80
68807;BME280;55800;54.272;18.558;2023-07-29T11:33:59;100150.28;;;25.99;42.45
68807;BME280;55800;54.272;18.558;2023-07-29T11:36:46;100157.28;;;26.02;43.46
68807;BME280;55800;54.272;18.558;2023-07-29T11:39:33;100153.69;;;26.01;41.67
68807;BME280;55800;54.272;18.558;2023-07-29T11:42:25;100153.00;;;25.99;41.38
68807;BME280;55800;54.272;18.558;2023-07-29T11:45:14;100152.31;;;26.05;41.91
68807;BME280;55800;54.272;18.558;2023-07-29T11:48:00;100148.19;;;26.17;42.48
68807;BME280;55800;54.272;18.558;2023-07-29T11:50:47;100154.50;;;26.26;42.57
68807;BME280;55800;54.272;18.558;2023-07-29T11:53:34;100150.38;;;26.30;40.99
68807;BME280;55800;54.272;18.558;2023-07-29T11:56:21;100150.38;;;26.38;41.73
68807;BME280;55800;54.272;18.558;2023-07-29T11:59:08;100151.88;;;26.49;42.72
68807;BME280;55800;54.272;18.558;2023-07-29T12:01:56;100143.94;;;26.62;42.19
68807;BME280;55800;54.272;18.558;2023-07-29T12:04:44;100137.03;;;26.66;42.33
68807;BME280;55800;54.272;18.558;2023-07-29T12:07:31;100143.38;;;26.74;43.70
68807;BME280;55800;54.272;18.558;2023-07-29T12:10:20;100125.00;;;26.83;42.71
68807;BME280;55800;54.272;18.558;2023-07-29T12:13:08;100131.38;;;26.75;41.43
68807;BME280;55800;54.272;18.558;2023-07-29T12:16:01;100131.75;;;26.72;42.00
68807;BME280;55800;54.272;18.558;2023-07-29T12:18:50;100119.56;;;26.67;41.19
68807;BME280;55800;54.272;18.558;2023-07-29T12:21:37;100114.41;;;26.80;43.63
68807;BME280;55800;54.272;18.558;2023-07-29T12:24:24;100110.25;;;26.84;41.17
68807;BME280;55800;54.272;18.558;2023-07-29T12:27:12;100099.22;;;26.92;42.00
68807;BME280;55800;54.272;18.558;2023-07-29T12:30:02;100095.72;;;27.06;42.89
68807;BME280;55800;54.272;18.558;2023-07-29T12:32:50;100093.03;;;27.21;43.76
68807;BME280;55800;54.272;18.558;2023-07-29T12:35:38;100086.94;;;27.33;43.90
68807;BME280;55800;54.272;18.558;2023-07-29T12:38:26;100094.75;;;27.44;43.54
68807;BME280;55800;54.272;18.558;2023-07-29T12:41:13;100094.13;;;27.57;44.44
68807;BME280;55800;54.272;18.558;2023-07-29T12:44:00;100100.47;;;27.57;43.08
68807;BME280;55800;54.272;18.558;2023-07-29T12:46:47;100098.03;;;27.62;43.47
68807;BME280;55800;54.272;18.558;2023-07-29T12:49:34;100093.75;;;27.60;43.18
68807;BME280;55800;54.272;18.558;2023-07-29T12:52:22;100097.44;;;27.52;42.95
68807;BME280;55800;54.272;18.558;2023-07-29T12:55:09;100099.88;;;27.47;44.18
68807;BME280;55800;54.272;18.558;2023-07-29T12:57:58;100093.53;;;27.47;43.82
68807;BME280;55800;54.272;18.558;2023-07-29T13:00:45;100091.31;;;27.42;44.37
68807;BME280;55800;54.272;18.558;2023-07-29T13:03:31;100090.00;;;27.38;43.76
68807;BME280;55800;54.272;18.558;2023-07-29T13:06:18;100090.03;;;27.30;43.42
68807;BME280;55800;54.272;18.558;2023-07-29T13:09:06;100086.63;;;27.28;43.35
68807;BME280;55800;54.272;18.558;2023-07-29T13:11:53;100095.47;;;27.16;42.65
68807;BME280;55800;54.272;18.558;2023-07-29T13:14:40;100092.41;;;27.11;43.28
68807;BME280;55800;54.272;18.558;2023-07-29T13:17:26;100085.34;;;27.16;43.24
68807;BME280;55800;54.272;18.558;2023-07-29T13:20:13;100077.19;;;27.08;43.02
68807;BME280;55800;54.272;18.558;2023-07-29T13:23:00;100070.31;;;27.04;43.34
68807;BME280;55800;54.272;18.558;2023-07-29T13:25:48;100076.81;;;27.11;44.35
68807;BME280;55800;54.272;18.558;2023-07-29T13:28:35;100079.19;;;27.14;44.05
68807;BME280;55800;54.272;18.558;2023-07-29T13:31:21;100076.00;;;27.25;44.12
68807;BME280;55800;54.272;18.558;2023-07-29T13:34:08;100074.63;;;27.29;44.23
68807;BME280;55800;54.272;18.558;2023-07-29T13:36:55;100067.34;;;27.36;44.31
68807;BME280;55800;54.272;18.558;2023-07-29T13:39:42;100065.91;;;27.48;45.11
68807;BME280;55800;54.272;18.558;2023-07-29T13:42:31;100057.69;;;27.63;45.66
68807;BME280;55800;54.272;18.558;2023-07-29T13:45:18;100053.53;;;27.81;45.76
68807;BME280;55800;54.272;18.558;2023-07-29T13:48:05;100058.88;;;27.98;45.44
68807;BME280;55800;54.272;18.558;2023-07-29T13:50:52;100061.06;;;28.17;45.51
68807;BME280;55800;54.272;18.558;2023-07-29T13:53:41;100057.34;;;28.39;45.83
68807;BME280;55800;54.272;18.558;2023-07-29T13:56:28;100032.94;;;28.65;45.91
68807;BME280;55800;54.272;18.558;2023-07-29T13:59:16;100032.84;;;28.94;45.78
68807;BME280;55800;54.272;18.558;2023-07-29T14:02:03;100032.47;;;29.18;46.63
68807;BME280;55800;54.272;18.558;2023-07-29T14:04:50;100029.56;;;29.48;45.46
68807;BME280;55800;54.272;18.558;2023-07-29T14:07:37;100031.19;;;29.70;42.93
68807;BME280;55800;54.272;18.558;2023-07-29T14:10:24;100034.16;;;29.96;45.29
68807;BME280;55800;54.272;18.558;2023-07-29T14:13:11;100038.56;;;30.25;45.44
68807;BME280;55800;54.272;18.558;2023-07-29T14:16:00;100031.94;;;30.53;45.17
68807;BME280;55800;54.272;18.558;2023-07-29T14:18:47;100035.16;;;30.63;43.06
68807;BME280;55800;54.272;18.558;2023-07-29T14:21:34;100021.19;;;30.84;41.96
68807;BME280;55800;54.272;18.558;2023-07-29T14:24:21;100013.81;;;31.11;42.29
68807;BME280;55800;54.272;18.558;2023-07-29T14:27:11;100012.38;;;31.09;40.46
68807;BME280;55800;54.272;18.558;2023-07-29T14:29:59;100017.47;;;31.38;41.82
68807;BME280;55800;54.272;18.558;2023-07-29T14:32:48;100006.84;;;31.68;41.83
68807;BME280;55800;54.272;18.558;2023-07-29T14:35:35;100006.78;;;32.00;42.39
68807;BME280;55800;54.272;18.558;2023-07-29T14:38:22;99999.25;;;32.33;43.36
68807;BME280;55800;54.272;18.558;2023-07-29T14:41:09;99985.94;;;32.62;42.22
68807;BME280;55800;54.272;18.558;2023-07-29T14:43:55;99981.94;;;32.89;42.71
68807;BME280;55800;54.272;18.558;2023-07-29T14:46:42;99983.47;;;33.16;43.24
68807;BME280;55800;54.272;18.558;2023-07-29T14:49:30;99979.28;;;33.32;42.35
68807;BME280;55800;54.272;18.558;2023-07-29T14:52:17;99972.00;;;33.37;42.74
68807;BME280;55800;54.272;18.558;2023-07-29T14:55:05;99971.31;;;33.42;42.20
68807;BME280;55800;54.272;18.558;2023-07-29T14:57:52;99965.34;;;33.38;42.16
68807;BME280;55800;54.272;18.558;2023-07-29T15:00:39;99968.41;;;33.30;40.71
68807;BME280;55800;54.272;18.558;2023-07-29T15:03:26;99969.94;;;33.26;42.13